KDFI/DFI METAR and TAF weather

Enter ICAO airport designator
Station Type Date Time Source
KDFI METAR 2021/09/24 01:53 UTC NOAA

KDFI 240153Z AUTO 26008G16KT 10SM BKN060 OVC120 13/08 A2992 RMK AO2 SLP133 T01330078 $


Station Type Date Time Source
KDFI Decoded METAR 2021/09/24 01:53 UTC NOAA

DEFIANCE MEMORIAL AIRPORT, OH, United States (KDFI) 41-20N 84-26W 219M
Sep 23, 2021 - 09:53 PM EDT / 2021.09.24 0153 UTC
Wind: from the W (260 degrees) at 9 MPH (8 KT) gusting to 18 MPH (16 KT):0
Visibility: 10 mile(s):0
Sky conditions: overcast
Temperature: 55.9 F (13.3 C)
Dew Point: 46.0 F (7.8 C)
Relative Humidity: 69%
Pressure (altimeter): 29.92 in. Hg (1013 hPa)
ob: KDFI 240153Z AUTO 26008G16KT 10SM BKN060 OVC120 13/08 A2992 RMK AO2 SLP133 T01330078
cycle: 2

Station Type Date Time Source
KDFI TAF UTC NOAA

Error!

Example: see airport list